createdAt,value
2022-10-31T00:01:41.097Z,11.27
2022-10-31T00:04:09.323Z,11.77
2022-10-31T00:06:37.757Z,12.13
2022-10-31T00:09:07.516Z,9.30
2022-10-31T00:11:35.865Z,10.77
2022-10-31T00:14:04.451Z,11.77
2022-10-31T00:16:33.033Z,10.88
2022-10-31T00:19:04.688Z,11.88
2022-10-31T00:21:33.498Z,10.57
2022-10-31T00:24:02.307Z,11.20
2022-10-31T00:26:33.067Z,9.70
2022-10-31T00:29:02.201Z,9.55
2022-10-31T00:31:30.918Z,10.40
2022-10-31T00:34:00.227Z,8.95
2022-10-31T00:36:28.789Z,8.27
2022-10-31T00:38:57.274Z,10.10
2022-10-31T00:41:25.530Z,11.05
2022-10-31T00:43:55.158Z,8.68
2022-10-31T00:46:23.492Z,8.93
2022-10-31T00:48:51.642Z,9.02
2022-10-31T00:51:19.886Z,8.65
2022-10-31T00:53:48.235Z,9.02
2022-10-31T00:56:16.402Z,9.20
2022-10-31T00:58:44.622Z,9.95
2022-10-31T01:01:14.279Z,10.45
2022-10-31T01:03:42.505Z,8.20
2022-10-31T01:06:13.436Z,8.13
2022-10-31T01:08:41.897Z,7.85
2022-10-31T01:11:14.227Z,7.60
2022-10-31T01:13:43.453Z,7.88
2022-10-31T01:16:15.936Z,7.80
2022-10-31T01:18:44.590Z,7.65
2022-10-31T01:21:15.263Z,8.48
2022-10-31T01:23:43.677Z,8.13
2022-10-31T01:26:15.242Z,7.82
2022-10-31T01:28:48.506Z,8.05
2022-10-31T01:31:20.166Z,7.88
2022-10-31T01:33:48.660Z,7.57
2022-10-31T01:36:22.102Z,9.02
2022-10-31T01:38:51.422Z,8.13
2022-10-31T01:41:23.229Z,8.40
2022-10-31T01:43:55.022Z,7.90
2022-10-31T01:46:29.552Z,8.38
2022-10-31T01:48:59.735Z,7.60
2022-10-31T01:51:32.367Z,7.57
2022-10-31T01:54:10.190Z,8.25
2022-10-31T01:56:43.804Z,8.48
2022-10-31T01:59:14.853Z,8.38
2022-10-31T02:01:44.825Z,7.82
2022-10-31T02:04:13.411Z,8.73
2022-10-31T02:06:47.742Z,7.90
2022-10-31T02:09:17.288Z,8.40
2022-10-31T02:11:47.110Z,8.85
2022-10-31T02:14:16.030Z,8.50
2022-10-31T02:16:45.582Z,9.25
2022-10-31T02:19:21.325Z,8.73
2022-10-31T02:21:58.441Z,9.57
2022-10-31T02:24:51.604Z,8.20
2022-10-31T02:28:03.673Z,8.18
2022-10-31T02:30:43.443Z,8.32
2022-10-31T02:33:25.711Z,9.35
2022-10-31T02:36:06.699Z,8.45
2022-10-31T02:38:49.768Z,9.02
2022-10-31T02:41:28.730Z,8.48
2022-10-31T02:44:08.189Z,7.90
2022-10-31T02:46:45.778Z,7.22
2022-10-31T02:49:25.319Z,7.55
2022-10-31T02:51:53.810Z,7.57
2022-10-31T02:54:25.486Z,7.13
2022-10-31T02:56:58.477Z,7.72
2022-10-31T02:59:27.221Z,7.32
2022-10-31T03:02:38.270Z,7.35
2022-10-31T03:05:23.241Z,7.35
2022-10-31T03:08:02.332Z,7.45
2022-10-31T03:10:39.330Z,7.38
2022-10-31T03:13:14.437Z,8.02
2022-10-31T03:15:47.544Z,7.10
2022-10-31T03:18:23.258Z,8.40
2022-10-31T03:21:00.759Z,8.18
2022-10-31T03:23:30.021Z,6.43
2022-10-31T03:25:58.603Z,8.05
2022-10-31T03:28:30.891Z,7.97
2022-10-31T03:31:02.363Z,7.55
2022-10-31T03:33:37.518Z,7.57
2022-10-31T03:36:12.659Z,7.88
2022-10-31T03:38:42.399Z,7.38
2022-10-31T03:41:25.760Z,7.15
2022-10-31T03:44:01.729Z,7.38
2022-10-31T03:46:30.089Z,7.88
2022-10-31T03:48:59.484Z,6.95
2022-10-31T03:51:39.343Z,6.60
2022-10-31T03:54:17.157Z,6.88
2022-10-31T03:56:52.651Z,6.35
2022-10-31T03:59:26.546Z,7.55
2022-10-31T04:02:00.315Z,7.13
2022-10-31T04:04:31.170Z,7.32
2022-10-31T04:07:03.507Z,6.30
2022-10-31T04:09:35.634Z,9.25
2022-10-31T04:12:07.583Z,8.48
2022-10-31T04:14:39.061Z,8.18
2022-10-31T04:17:13.995Z,9.45
2022-10-31T04:19:42.254Z,8.80
2022-10-31T04:22:12.449Z,7.10
2022-10-31T04:24:42.872Z,7.55
2022-10-31T04:27:11.189Z,5.72
2022-10-31T04:29:39.403Z,6.15
2022-10-31T04:32:07.650Z,7.80
2022-10-31T04:34:35.871Z,6.15
2022-10-31T04:37:04.096Z,7.30
2022-10-31T04:39:34.007Z,6.35
2022-10-31T04:42:02.218Z,6.50
2022-10-31T04:44:30.362Z,7.13
2022-10-31T04:46:58.546Z,7.57
2022-10-31T04:49:26.768Z,7.40
2022-10-31T04:51:55.329Z,7.25
2022-10-31T04:54:23.515Z,5.93
2022-10-31T04:56:53.066Z,6.80
2022-10-31T04:59:21.223Z,8.02
2022-10-31T05:01:49.627Z,6.70
2022-10-31T05:04:17.921Z,6.45
2022-10-31T05:06:46.097Z,7.43
2022-10-31T05:09:14.383Z,6.82
2022-10-31T05:11:42.574Z,6.35
2022-10-31T05:14:12.156Z,5.95
2022-10-31T05:16:40.391Z,7.05
2022-10-31T05:19:08.669Z,6.93
2022-10-31T05:21:36.843Z,6.22
2022-10-31T05:24:08.245Z,5.85
2022-10-31T05:26:38.178Z,6.20
2022-10-31T05:29:07.704Z,6.47
2022-10-31T05:31:38.884Z,6.93
2022-10-31T05:34:08.673Z,6.93
2022-10-31T05:36:38.885Z,7.32
2022-10-31T05:39:08.923Z,5.90
2022-10-31T05:41:38.387Z,6.57
2022-10-31T05:44:08.192Z,6.70
2022-10-31T05:46:39.268Z,7.65
2022-10-31T05:49:07.581Z,6.80
2022-10-31T05:51:35.854Z,6.57
2022-10-31T05:54:04.075Z,7.60
2022-10-31T05:56:32.374Z,7.05
2022-10-31T05:59:00.917Z,8.13
2022-10-31T06:01:29.203Z,8.23
2022-10-31T06:04:00.379Z,7.00
2022-10-31T06:06:31.251Z,7.22
2022-10-31T06:09:01.788Z,6.72
2022-10-31T06:11:32.164Z,6.55
2022-10-31T06:14:00.740Z,6.97
2022-10-31T06:16:28.956Z,6.53
2022-10-31T06:18:58.515Z,6.28
2022-10-31T06:21:27.721Z,6.93
2022-10-31T06:23:55.925Z,6.28
2022-10-31T06:26:24.592Z,6.45
2022-10-31T06:28:52.767Z,6.82
2022-10-31T06:31:20.943Z,6.70
2022-10-31T06:33:49.175Z,6.65
2022-10-31T06:36:18.725Z,6.80
2022-10-31T06:38:46.951Z,6.63
2022-10-31T06:41:15.164Z,6.65
2022-10-31T06:43:43.410Z,6.60
2022-10-31T06:46:11.558Z,5.97
2022-10-31T06:48:39.746Z,6.72
2022-10-31T06:51:08.227Z,6.40
2022-10-31T06:53:37.786Z,6.55
2022-10-31T06:56:07.086Z,6.68
2022-10-31T06:58:35.242Z,6.32
2022-10-31T07:01:03.667Z,5.75
2022-10-31T07:03:31.990Z,7.03
2022-10-31T07:06:00.164Z,6.10
2022-10-31T07:08:28.466Z,6.53
2022-10-31T07:10:59.439Z,7.00
2022-10-31T07:13:27.754Z,6.40
2022-10-31T07:16:01.894Z,6.72
2022-10-31T07:18:30.431Z,6.25
2022-10-31T07:20:58.644Z,6.03
2022-10-31T07:23:26.889Z,7.07
2022-10-31T07:25:59.421Z,6.70
2022-10-31T07:28:29.043Z,6.72
2022-10-31T07:30:59.605Z,6.63
2022-10-31T07:33:31.589Z,7.10
2022-10-31T07:35:59.949Z,7.78
2022-10-31T07:38:28.109Z,6.30
2022-10-31T07:40:56.318Z,6.53
2022-10-31T07:43:29.153Z,6.90
2022-10-31T07:45:57.561Z,6.28
2022-10-31T07:48:25.791Z,6.90
2022-10-31T07:50:53.995Z,6.15
2022-10-31T07:53:22.332Z,6.93
2022-10-31T07:55:50.842Z,6.95
2022-10-31T07:58:19.722Z,7.43
2022-10-31T08:00:50.004Z,6.03
2022-10-31T08:03:20.424Z,6.78
2022-10-31T08:05:50.459Z,7.30
2022-10-31T08:08:19.063Z,6.60
2022-10-31T08:10:47.892Z,6.45
2022-10-31T08:13:16.753Z,5.88
2022-10-31T08:15:51.676Z,6.13
2022-10-31T08:18:21.471Z,6.40
2022-10-31T08:20:49.777Z,6.78
2022-10-31T08:23:18.446Z,6.88
2022-10-31T08:25:47.984Z,6.65
2022-10-31T08:28:17.298Z,7.15
2022-10-31T08:30:48.922Z,6.72
2022-10-31T08:33:21.567Z,6.78
2022-10-31T08:35:50.661Z,6.88
2022-10-31T08:38:18.966Z,6.85
2022-10-31T08:40:51.452Z,6.68
2022-10-31T08:43:20.910Z,6.47
2022-10-31T08:45:52.079Z,6.95
2022-10-31T08:48:20.498Z,7.28
2022-10-31T08:50:51.854Z,7.05
2022-10-31T08:53:21.811Z,7.60
2022-10-31T08:55:50.205Z,7.18
2022-10-31T08:58:20.582Z,9.40
2022-10-31T09:00:52.511Z,8.15
2022-10-31T09:03:24.125Z,8.43
2022-10-31T09:05:56.416Z,8.35
2022-10-31T09:08:24.877Z,7.85
2022-10-31T09:10:53.474Z,7.28
2022-10-31T09:13:27.874Z,8.60
2022-10-31T09:15:59.680Z,8.27
2022-10-31T09:18:29.755Z,8.38
2022-10-31T09:21:00.767Z,8.25
2022-10-31T09:23:29.134Z,8.43
2022-10-31T09:25:57.985Z,8.65
2022-10-31T09:28:27.379Z,8.15
2022-10-31T09:30:57.595Z,9.20
2022-10-31T09:33:26.480Z,8.35
2022-10-31T09:35:54.936Z,9.38
2022-10-31T09:38:24.406Z,8.57
2022-10-31T09:41:05.863Z,8.70
2022-10-31T09:43:45.381Z,8.82
2022-10-31T09:46:23.879Z,8.73
2022-10-31T09:49:10.622Z,9.70
2022-10-31T09:51:50.537Z,9.80
2022-10-31T09:54:31.135Z,10.05
2022-10-31T09:57:01.129Z,9.38
2022-10-31T09:59:33.624Z,10.43
2022-10-31T10:02:07.219Z,10.60
2022-10-31T10:04:46.451Z,9.70
2022-10-31T10:07:23.160Z,10.73
2022-10-31T10:09:51.827Z,9.75
2022-10-31T10:12:36.026Z,10.02
2022-10-31T10:15:38.389Z,9.57
2022-10-31T10:18:23.890Z,9.32
2022-10-31T10:21:11.796Z,10.27
2022-10-31T10:23:57.449Z,9.52
2022-10-31T10:26:36.693Z,9.82
2022-10-31T10:29:18.938Z,11.43
2022-10-31T10:31:49.173Z,10.18
2022-10-31T10:34:37.123Z,13.70
2022-10-31T10:37:30.393Z,9.50
2022-10-31T10:40:13.879Z,10.07
2022-10-31T10:43:13.313Z,10.32
2022-10-31T10:46:09.313Z,9.80
2022-10-31T10:49:00.738Z,10.57
2022-10-31T10:52:13.118Z,10.30
2022-10-31T10:55:14.914Z,9.85
2022-10-31T10:58:08.590Z,9.57
2022-10-31T11:00:51.778Z,9.32
2022-10-31T11:03:37.790Z,10.70
2022-10-31T11:06:29.627Z,10.63
2022-10-31T11:09:17.463Z,9.73
2022-10-31T11:12:13.285Z,10.65
2022-10-31T11:14:48.939Z,11.38
2022-10-31T11:17:29.446Z,11.10
2022-10-31T11:20:32.844Z,10.77
2022-10-31T11:23:16.841Z,11.93
2022-10-31T11:25:57.591Z,11.23
2022-10-31T11:28:26.334Z,11.05
2022-10-31T11:30:58.082Z,12.05
2022-10-31T11:33:32.659Z,11.10
2022-10-31T11:36:02.319Z,11.40
2022-10-31T11:38:37.517Z,11.60
2022-10-31T11:41:18.503Z,11.77
2022-10-31T11:43:52.351Z,11.25
2022-10-31T11:46:27.015Z,11.25
2022-10-31T11:48:57.951Z,11.00
2022-10-31T11:51:29.869Z,11.20
2022-10-31T11:54:03.225Z,11.23
2022-10-31T11:56:42.564Z,11.32
2022-10-31T11:59:24.810Z,11.05
2022-10-31T12:01:55.915Z,11.18
2022-10-31T12:04:40.134Z,11.02
2022-10-31T12:07:08.759Z,13.10
2022-10-31T12:09:39.012Z,13.82
2022-10-31T12:12:37.033Z,11.30
2022-10-31T12:15:28.602Z,11.93
2022-10-31T12:18:18.757Z,11.15
2022-10-31T12:21:02.230Z,10.15
2022-10-31T12:23:45.320Z,11.23
2022-10-31T12:26:22.408Z,11.48
2022-10-31T12:29:24.108Z,11.02
2022-10-31T12:32:06.511Z,11.25
2022-10-31T12:34:59.976Z,11.63
2022-10-31T12:37:46.585Z,10.80
2022-10-31T12:40:38.030Z,10.45
2022-10-31T12:43:22.949Z,10.20
2022-10-31T12:45:57.986Z,10.85
2022-10-31T12:49:17.429Z,9.55
2022-10-31T12:51:58.262Z,10.80
2022-10-31T12:54:48.101Z,10.63
2022-10-31T12:57:26.074Z,10.20
2022-10-31T13:00:02.178Z,10.35
2022-10-31T13:02:38.629Z,10.30
2022-10-31T13:05:26.393Z,9.32
2022-10-31T13:08:00.619Z,10.45
2022-10-31T13:10:34.799Z,10.55
2022-10-31T13:13:09.598Z,9.73
2022-10-31T13:15:51.503Z,9.30
2022-10-31T13:18:35.576Z,8.98
2022-10-31T13:21:10.384Z,9.55
2022-10-31T13:23:56.605Z,8.85
2022-10-31T13:26:39.431Z,9.65
2022-10-31T13:29:19.586Z,10.48
2022-10-31T13:31:48.006Z,10.10
2022-10-31T13:34:27.072Z,9.65
2022-10-31T13:37:05.794Z,10.02
2022-10-31T13:39:50.110Z,9.90
2022-10-31T13:42:25.403Z,10.05
2022-10-31T13:44:53.630Z,9.45
2022-10-31T13:47:28.915Z,9.63
2022-10-31T13:50:21.990Z,10.23
2022-10-31T13:52:50.293Z,8.02
2022-10-31T13:55:41.148Z,9.15
2022-10-31T13:58:26.015Z,9.65
2022-10-31T14:01:21.411Z,10.02
2022-10-31T14:04:12.298Z,8.98
2022-10-31T14:06:53.334Z,9.88
2022-10-31T14:09:30.649Z,8.70
2022-10-31T14:12:02.913Z,9.60
2022-10-31T14:14:50.290Z,10.30
2022-10-31T14:17:23.580Z,10.70
2022-10-31T14:20:36.082Z,11.07
2022-10-31T14:23:38.636Z,11.93
2022-10-31T14:26:23.643Z,11.15
2022-10-31T14:28:53.075Z,12.40
2022-10-31T14:31:37.826Z,11.50
2022-10-31T14:34:25.130Z,12.32
2022-10-31T14:37:25.614Z,12.77
2022-10-31T14:40:16.518Z,12.30
2022-10-31T14:43:15.288Z,13.02
2022-10-31T14:45:53.618Z,13.90
2022-10-31T14:48:45.044Z,23.55
2022-10-31T14:51:18.507Z,18.88
2022-10-31T14:53:50.605Z,15.98
2022-10-31T14:56:26.807Z,13.80
2022-10-31T14:58:57.661Z,13.68
2022-10-31T15:01:30.435Z,14.27
2022-10-31T15:04:22.359Z,14.82
2022-10-31T15:06:56.315Z,15.52
2022-10-31T15:09:27.049Z,14.70
2022-10-31T15:11:56.659Z,15.68
2022-10-31T15:14:28.337Z,17.30
2022-10-31T15:16:59.121Z,17.27
2022-10-31T15:19:29.659Z,16.08
2022-10-31T15:21:59.612Z,16.38
2022-10-31T15:24:35.491Z,17.27
2022-10-31T15:27:05.875Z,15.70
2022-10-31T15:29:34.136Z,17.98
2022-10-31T15:32:18.336Z,17.00
2022-10-31T15:34:47.048Z,15.30
2022-10-31T15:37:17.562Z,15.35
2022-10-31T15:39:47.393Z,13.20
2022-10-31T15:42:28.643Z,13.60
2022-10-31T15:45:04.811Z,14.75
2022-10-31T15:47:34.706Z,14.32
2022-10-31T15:50:06.218Z,15.32
2022-10-31T15:52:41.178Z,14.48
2022-10-31T15:55:21.892Z,17.00
2022-10-31T15:57:54.393Z,15.55
2022-10-31T16:00:29.565Z,12.85
2022-10-31T16:03:09.242Z,15.90
2022-10-31T16:05:40.610Z,13.00
2022-10-31T16:08:26.253Z,12.02
2022-10-31T16:10:55.365Z,14.18
2022-10-31T16:13:29.666Z,15.38
2022-10-31T16:16:32.750Z,12.73
2022-10-31T16:18:52.240Z,11.32
2022-10-31T16:21:28.225Z,12.18
2022-10-31T16:24:05.825Z,11.93
2022-10-31T16:26:35.106Z,10.68
2022-10-31T16:29:06.066Z,10.73
2022-10-31T16:31:40.679Z,10.00
2022-10-31T16:34:18.611Z,10.45
2022-10-31T16:36:49.551Z,11.43
2022-10-31T16:39:18.317Z,10.73
2022-10-31T16:41:51.330Z,11.35
2022-10-31T16:44:26.499Z,9.65
2022-10-31T16:47:14.264Z,9.63
2022-10-31T16:49:43.072Z,10.23
2022-10-31T16:52:11.418Z,11.40
2022-10-31T16:54:40.107Z,10.43
2022-10-31T16:57:09.122Z,10.45
2022-10-31T16:59:38.772Z,9.38
2022-10-31T17:02:13.540Z,8.60
2022-10-31T17:04:41.794Z,9.45
2022-10-31T17:07:09.998Z,9.30
2022-10-31T17:09:38.254Z,9.55
2022-10-31T17:12:08.134Z,9.38
2022-10-31T17:14:38.267Z,10.02
2022-10-31T17:17:06.431Z,9.70
2022-10-31T17:19:34.903Z,9.10
2022-10-31T17:22:03.978Z,9.65
2022-10-31T17:24:32.206Z,9.90
2022-10-31T17:27:00.529Z,8.48
2022-10-31T17:29:28.782Z,9.07
2022-10-31T17:31:58.331Z,8.95
2022-10-31T17:34:26.636Z,9.57
2022-10-31T17:36:55.278Z,9.32
2022-10-31T17:39:23.975Z,8.90
2022-10-31T17:41:52.685Z,8.85
2022-10-31T17:44:21.098Z,9.48
2022-10-31T17:46:49.265Z,9.80
2022-10-31T17:49:18.786Z,8.95
2022-10-31T17:51:47.005Z,9.90
2022-10-31T17:54:18.411Z,9.93
2022-10-31T17:56:46.620Z,10.55
2022-10-31T17:59:14.795Z,9.75
2022-10-31T18:01:43.099Z,9.88
2022-10-31T18:04:11.513Z,11.70
2022-10-31T18:06:41.157Z,10.98
2022-10-31T18:09:09.458Z,11.23
2022-10-31T18:11:37.654Z,9.80
2022-10-31T18:14:06.174Z,12.27
2022-10-31T18:19:07.743Z,10.05
2022-10-31T18:21:35.938Z,9.60
2022-10-31T18:24:06.448Z,10.50
2022-10-31T18:26:34.698Z,10.35
2022-10-31T18:29:03.500Z,11.60
2022-10-31T18:31:32.128Z,11.88
2022-10-31T18:34:00.362Z,11.82
2022-10-31T18:36:28.590Z,10.77
2022-10-31T18:38:57.614Z,11.45
2022-10-31T18:41:27.498Z,11.77
2022-10-31T18:43:59.838Z,9.13
2022-10-31T18:46:29.272Z,10.77
2022-10-31T18:48:57.734Z,10.82
2022-10-31T18:51:25.976Z,9.88
2022-10-31T18:53:56.121Z,10.25
2022-10-31T18:56:26.707Z,10.10
2022-10-31T18:58:54.946Z,10.93
2022-10-31T19:01:23.981Z,12.13
2022-10-31T19:03:56.433Z,10.77
2022-10-31T19:06:25.280Z,11.25
2022-10-31T19:08:59.836Z,11.68
2022-10-31T19:11:29.844Z,11.77
2022-10-31T19:13:58.983Z,10.55
2022-10-31T19:16:27.361Z,12.00
2022-10-31T19:18:56.719Z,11.60
2022-10-31T19:21:25.743Z,10.30
2022-10-31T19:23:56.321Z,11.50
2022-10-31T19:26:24.808Z,12.60
2022-10-31T19:28:54.671Z,10.90
2022-10-31T19:31:23.053Z,10.55
2022-10-31T19:33:51.227Z,11.27
2022-10-31T19:36:21.460Z,13.10
2022-10-31T19:38:52.703Z,11.68
2022-10-31T19:41:23.075Z,12.43
2022-10-31T19:43:53.514Z,13.18
2022-10-31T19:46:40.496Z,17.55
2022-10-31T19:49:12.624Z,15.13
2022-10-31T19:51:40.953Z,17.40
2022-10-31T19:54:09.206Z,12.88
2022-10-31T19:56:37.408Z,10.18
2022-10-31T19:59:06.954Z,11.50
2022-10-31T20:01:35.407Z,11.27
2022-10-31T20:04:03.842Z,12.52
2022-10-31T20:06:34.677Z,10.45
2022-10-31T20:09:07.944Z,12.80
2022-10-31T20:11:38.721Z,12.38
2022-10-31T20:14:10.021Z,11.07
2022-10-31T20:16:38.210Z,10.40
2022-10-31T20:19:06.903Z,11.57
2022-10-31T20:21:39.842Z,13.00
2022-10-31T20:24:10.938Z,11.68
2022-10-31T20:26:41.180Z,10.38
2022-10-31T20:29:15.726Z,10.88
2022-10-31T20:31:45.578Z,11.00
2022-10-31T20:34:13.882Z,12.70
2022-10-31T20:36:42.092Z,10.80
2022-10-31T20:39:11.331Z,9.68
2022-10-31T20:41:40.184Z,9.88
2022-10-31T20:44:09.894Z,10.45
2022-10-31T20:46:38.210Z,12.60
2022-10-31T20:49:07.019Z,11.05
2022-10-31T20:51:35.272Z,9.35
2022-10-31T20:54:03.521Z,9.65
2022-10-31T20:56:31.850Z,9.68
2022-10-31T20:59:00.151Z,9.00
2022-10-31T21:01:33.165Z,9.43
2022-10-31T21:04:01.527Z,10.00
2022-10-31T21:06:30.555Z,9.77
2022-10-31T21:08:59.171Z,23.08
2022-10-31T21:11:29.062Z,12.63
2022-10-31T21:13:57.714Z,9.75
2022-10-31T21:16:31.053Z,9.10
2022-10-31T21:19:01.508Z,10.07
2022-10-31T21:21:33.214Z,9.98
2022-10-31T21:24:07.076Z,12.43
2022-10-31T21:26:39.107Z,10.45
2022-10-31T21:29:08.670Z,12.48
2022-10-31T21:31:39.722Z,10.98
2022-10-31T21:34:08.051Z,8.70
2022-10-31T21:36:36.827Z,12.60
2022-10-31T21:39:06.594Z,12.35
2022-10-31T21:41:35.125Z,8.95
2022-10-31T21:44:03.327Z,10.60
2022-10-31T21:46:33.626Z,13.25
2022-10-31T21:49:05.341Z,11.77
2022-10-31T21:51:37.413Z,10.88
2022-10-31T21:54:29.230Z,10.30
2022-10-31T21:56:58.720Z,9.98
2022-10-31T21:59:27.156Z,8.55
2022-10-31T22:01:59.863Z,7.85
2022-10-31T22:04:29.955Z,8.43
2022-10-31T22:06:58.330Z,11.82
2022-10-31T22:09:26.523Z,8.30
2022-10-31T22:11:54.722Z,7.80
2022-10-31T22:14:23.003Z,7.93
2022-10-31T22:16:51.207Z,8.27
2022-10-31T22:19:19.460Z,6.97
2022-10-31T22:21:49.610Z,7.43
2022-10-31T22:24:18.826Z,6.78
2022-10-31T22:26:47.154Z,6.60
2022-10-31T22:29:17.869Z,7.35
2022-10-31T22:31:53.522Z,8.38
2022-10-31T22:34:25.614Z,7.63
2022-10-31T22:36:56.255Z,7.47
2022-10-31T22:39:24.714Z,7.93
2022-10-31T22:41:52.989Z,9.25
2022-10-31T22:44:22.451Z,12.30
2022-10-31T22:46:50.651Z,10.95
2022-10-31T22:49:19.037Z,8.52
2022-10-31T22:51:47.267Z,10.10
2022-10-31T22:54:19.652Z,14.30
2022-10-31T22:56:48.189Z,10.13
2022-10-31T22:59:18.057Z,14.88
2022-10-31T23:01:46.843Z,10.52
2022-10-31T23:04:16.449Z,15.57
2022-10-31T23:06:45.349Z,13.30
2022-10-31T23:09:18.489Z,13.57
2022-10-31T23:11:47.295Z,7.88
2022-10-31T23:14:20.416Z,8.40
2022-10-31T23:16:51.011Z,7.97
2022-10-31T23:19:22.530Z,7.90
2022-10-31T23:21:57.303Z,6.85
2022-10-31T23:24:30.892Z,7.20
2022-10-31T23:27:05.366Z,7.40
2022-10-31T23:29:33.888Z,8.40
2022-10-31T23:32:02.302Z,9.07
2022-10-31T23:34:30.643Z,8.30
2022-10-31T23:36:59.030Z,7.07
2022-10-31T23:39:28.941Z,8.20
2022-10-31T23:41:57.134Z,8.48
2022-10-31T23:44:25.357Z,8.40
2022-10-31T23:46:53.974Z,7.90
2022-10-31T23:49:22.217Z,8.00
2022-10-31T23:51:50.437Z,7.88
2022-10-31T23:54:18.782Z,7.60
2022-10-31T23:56:48.336Z,7.45
2022-10-31T23:59:16.558Z,7.85
